sensor_id;sensor_type;location;lat;lon;timestamp;P1;P2;P0
71794;PMS7003;59641;45.188;5.712;2023-06-22T00:01:46;8.00;8.00;6.50
71794;PMS7003;59641;45.188;5.712;2023-06-22T00:04:11;10.50;9.75;7.75
71794;PMS7003;59641;45.188;5.712;2023-06-22T00:06:36;8.25;8.25;5.75
71794;PMS7003;59641;45.188;5.712;2023-06-22T00:09:02;11.25;10.50;6.50
71794;PMS7003;59641;45.188;5.712;2023-06-22T00:11:28;10.20;9.00;6.80
71794;PMS7003;59641;45.188;5.712;2023-06-22T00:13:53;10.25;9.75;6.25
71794;PMS7003;59641;45.188;5.712;2023-06-22T00:16:19;11.25;10.25;8.50
71794;PMS7003;59641;45.188;5.712;2023-06-22T00:18:44;11.00;8.25;6.50
71794;PMS7003;59641;45.188;5.712;2023-06-22T00:21:12;13.25;11.50;8.25
71794;PMS7003;59641;45.188;5.712;2023-06-22T01:46:02;9.50;9.50;7.00
71794;PMS7003;59641;45.188;5.712;2023-06-22T01:48:28;12.00;12.00;7.80
71794;PMS7003;59641;45.188;5.712;2023-06-22T01:50:54;9.20;8.80;7.20
71794;PMS7003;59641;45.188;5.712;2023-06-22T01:53:21;10.80;9.00;7.60
71794;PMS7003;59641;45.188;5.712;2023-06-22T01:55:47;8.75;8.75;7.00
71794;PMS7003;59641;45.188;5.712;2023-06-22T01:58:13;8.50;8.50;6.50
71794;PMS7003;59641;45.188;5.712;2023-06-22T02:00:38;8.25;6.75;6.25
71794;PMS7003;59641;45.188;5.712;2023-06-22T02:03:10;8.25;8.25;6.00
71794;PMS7003;59641;45.188;5.712;2023-06-22T02:05:38;8.40;7.60;5.60
71794;PMS7003;59641;45.188;5.712;2023-06-22T02:08:15;9.60;9.60;7.20
71794;PMS7003;59641;45.188;5.712;2023-06-22T02:10:46;9.20;7.20;6.00
71794;PMS7003;59641;45.188;5.712;2023-06-22T02:13:13;8.20;8.20;7.00
71794;PMS7003;59641;45.188;5.712;2023-06-22T02:15:40;11.60;11.00;8.60
71794;PMS7003;59641;45.188;5.712;2023-06-22T02:18:05;11.00;11.00;7.50
71794;PMS7003;59641;45.188;5.712;2023-06-22T02:20:31;12.00;10.00;8.00
71794;PMS7003;59641;45.188;5.712;2023-06-22T02:22:56;13.50;11.75;7.75
71794;PMS7003;59641;45.188;5.712;2023-06-22T02:25:22;11.00;11.00;7.75
71794;PMS7003;59641;45.188;5.712;2023-06-22T02:27:47;10.00;9.00;5.25
71794;PMS7003;59641;45.188;5.712;2023-06-22T02:30:14;9.75;9.00;7.00
71794;PMS7003;59641;45.188;5.712;2023-06-22T02:32:40;10.80;9.60;7.00
71794;PMS7003;59641;45.188;5.712;2023-06-22T02:35:09;10.80;9.60;6.60
71794;PMS7003;59641;45.188;5.712;2023-06-22T02:37:35;9.00;8.80;7.00
71794;PMS7003;59641;45.188;5.712;2023-06-22T02:40:07;8.80;7.80;6.00
71794;PMS7003;59641;45.188;5.712;2023-06-22T02:42:36;8.00;8.00;6.60
71794;PMS7003;59641;45.188;5.712;2023-06-22T02:45:02;12.00;8.80;6.20
71794;PMS7003;59641;45.188;5.712;2023-06-22T02:47:28;7.50;7.50;5.25
71794;PMS7003;59641;45.188;5.712;2023-06-22T02:49:53;8.00;6.25;5.25
71794;PMS7003;59641;45.188;5.712;2023-06-22T02:52:19;14.00;11.50;7.50
71794;PMS7003;59641;45.188;5.712;2023-06-22T02:54:44;13.25;11.00;7.50
71794;PMS7003;59641;45.188;5.712;2023-06-22T02:57:11;15.60;13.00;8.60
71794;PMS7003;59641;45.188;5.712;2023-06-22T02:59:38;12.20;12.20;9.00
71794;PMS7003;59641;45.188;5.712;2023-06-22T03:02:07;13.00;11.20;8.20
71794;PMS7003;59641;45.188;5.712;2023-06-22T03:04:34;7.40;7.40;6.00
71794;PMS7003;59641;45.188;5.712;2023-06-22T03:07:00;9.60;8.80;6.00
71794;PMS7003;59641;45.188;5.712;2023-06-22T03:09:26;10.60;10.20;8.00
71794;PMS7003;59641;45.188;5.712;2023-06-22T03:11:52;12.40;12.20;8.20
71794;PMS7003;59641;45.188;5.712;2023-06-22T03:14:18;11.00;10.75;7.75
71794;PMS7003;59641;45.188;5.712;2023-06-22T03:16:43;8.50;8.00;6.00
71794;PMS7003;59641;45.188;5.712;2023-06-22T03:19:09;8.50;8.25;7.00
71794;PMS7003;59641;45.188;5.712;2023-06-22T03:21:34;14.50;11.00;8.50
71794;PMS7003;59641;45.188;5.712;2023-06-22T03:24:02;9.25;9.00;7.00
71794;PMS7003;59641;45.188;5.712;2023-06-22T03:26:27;8.75;8.75;6.00
71794;PMS7003;59641;45.188;5.712;2023-06-22T03:28:54;10.00;10.00;7.60
71794;PMS7003;59641;45.188;5.712;2023-06-22T03:31:19;11.00;11.00;7.75
71794;PMS7003;59641;45.188;5.712;2023-06-22T03:33:46;7.40;7.40;7.20
71794;PMS7003;59641;45.188;5.712;2023-06-22T03:36:14;8.40;7.80;5.80
71794;PMS7003;59641;45.188;5.712;2023-06-22T03:38:41;9.80;8.80;7.00
71794;PMS7003;59641;45.188;5.712;2023-06-22T03:41:06;11.00;7.25;5.00
71794;PMS7003;59641;45.188;5.712;2023-06-22T03:43:32;10.25;10.00;6.50
71794;PMS7003;59641;45.188;5.712;2023-06-22T03:45:57;12.00;9.75;7.00
71794;PMS7003;59641;45.188;5.712;2023-06-22T03:48:23;13.50;10.00;7.75
71794;PMS7003;59641;45.188;5.712;2023-06-22T03:50:48;8.00;8.00;6.25
71794;PMS7003;59641;45.188;5.712;2023-06-22T03:53:13;11.50;9.00;8.00
71794;PMS7003;59641;45.188;5.712;2023-06-22T03:55:45;7.75;7.50;6.00
71794;PMS7003;59641;45.188;5.712;2023-06-22T03:58:14;7.80;7.00;4.80
71794;PMS7003;59641;45.188;5.712;2023-06-22T04:00:39;8.00;6.75;5.00
71794;PMS7003;59641;45.188;5.712;2023-06-22T04:03:05;8.00;8.00;4.75
71794;PMS7003;59641;45.188;5.712;2023-06-22T04:05:32;9.40;8.60;5.00
71794;PMS7003;59641;45.188;5.712;2023-06-22T04:07:57;7.75;7.00;5.50
71794;PMS7003;59641;45.188;5.712;2023-06-22T04:10:23;8.50;8.00;7.00
71794;PMS7003;59641;45.188;5.712;2023-06-22T04:12:48;9.50;8.75;6.00
71794;PMS7003;59641;45.188;5.712;2023-06-22T04:15:14;9.25;8.00;6.00
71794;PMS7003;59641;45.188;5.712;2023-06-22T04:17:39;8.75;8.75;6.75
71794;PMS7003;59641;45.188;5.712;2023-06-22T04:20:05;9.75;8.25;6.00
71794;PMS7003;59641;45.188;5.712;2023-06-22T04:22:30;2.80;2.80;0.80
71794;PMS7003;59641;45.188;5.712;2023-06-22T04:24:56;9.00;8.50;5.25
71794;PMS7003;59641;45.188;5.712;2023-06-22T04:27:21;9.00;8.25;7.25
71794;PMS7003;59641;45.188;5.712;2023-06-22T04:29:48;10.75;8.25;6.00
71794;PMS7003;59641;45.188;5.712;2023-06-22T04:32:13;9.25;8.75;6.50
71794;PMS7003;59641;45.188;5.712;2023-06-22T04:34:41;8.80;7.80;6.00
71794;PMS7003;59641;45.188;5.712;2023-06-22T04:37:07;8.25;8.00;6.00
71794;PMS7003;59641;45.188;5.712;2023-06-22T04:39:32;10.50;9.00;7.00
71794;PMS7003;59641;45.188;5.712;2023-06-22T04:41:58;12.00;11.25;8.00
71794;PMS7003;59641;45.188;5.712;2023-06-22T04:44:25;12.80;12.20;8.00
71794;PMS7003;59641;45.188;5.712;2023-06-22T04:46:52;11.50;10.75;8.50
71794;PMS7003;59641;45.188;5.712;2023-06-22T04:49:27;13.50;13.00;8.25
71794;PMS7003;59641;45.188;5.712;2023-06-22T04:52:01;12.50;12.00;9.25
71794;PMS7003;59641;45.188;5.712;2023-06-22T04:54:27;11.00;11.00;7.80
71794;PMS7003;59641;45.188;5.712;2023-06-22T04:56:53;10.75;10.25;7.75
71794;PMS7003;59641;45.188;5.712;2023-06-22T04:59:24;10.20;10.20;7.00
71794;PMS7003;59641;45.188;5.712;2023-06-22T05:01:53;10.20;9.80;7.80
71794;PMS7003;59641;45.188;5.712;2023-06-22T05:04:28;13.20;11.20;8.00
71794;PMS7003;59641;45.188;5.712;2023-06-22T05:06:58;11.00;10.20;7.60
71794;PMS7003;59641;45.188;5.712;2023-06-22T05:09:25;12.00;12.00;9.00
71794;PMS7003;59641;45.188;5.712;2023-06-22T05:11:50;10.75;10.00;7.75
71794;PMS7003;59641;45.188;5.712;2023-06-22T05:14:16;12.00;10.75;7.75
71794;PMS7003;59641;45.188;5.712;2023-06-22T05:16:42;9.75;9.75;7.75
71794;PMS7003;59641;45.188;5.712;2023-06-22T05:19:08;10.00;10.00;8.00
71794;PMS7003;59641;45.188;5.712;2023-06-22T05:21:33;14.00;12.00;8.75
71794;PMS7003;59641;45.188;5.712;2023-06-22T05:23:59;13.00;13.00;9.00
71794;PMS7003;59641;45.188;5.712;2023-06-22T05:26:27;12.60;9.80;7.60
71794;PMS7003;59641;45.188;5.712;2023-06-22T05:28:52;12.50;11.50;8.00
71794;PMS7003;59641;45.188;5.712;2023-06-22T05:31:18;10.80;10.80;7.00
71794;PMS7003;59641;45.188;5.712;2023-06-22T05:33:47;8.40;8.00;6.40
71794;PMS7003;59641;45.188;5.712;2023-06-22T05:36:14;10.00;8.80;7.00
71794;PMS7003;59641;45.188;5.712;2023-06-22T05:38:40;9.75;8.50;6.75
71794;PMS7003;59641;45.188;5.712;2023-06-22T05:41:05;11.25;9.50;7.50
71794;PMS7003;59641;45.188;5.712;2023-06-22T05:43:31;11.60;10.60;8.20
71794;PMS7003;59641;45.188;5.712;2023-06-22T05:45:57;13.50;11.00;8.00
71794;PMS7003;59641;45.188;5.712;2023-06-22T05:48:23;11.25;10.50;8.00
71794;PMS7003;59641;45.188;5.712;2023-06-22T05:50:49;11.20;9.40;7.00
71794;PMS7003;59641;45.188;5.712;2023-06-22T05:53:14;11.25;10.50;7.75
71794;PMS7003;59641;45.188;5.712;2023-06-22T05:55:40;13.00;12.25;9.50
71794;PMS7003;59641;45.188;5.712;2023-06-22T05:58:05;10.50;10.00;6.00
71794;PMS7003;59641;45.188;5.712;2023-06-22T06:00:31;12.50;11.00;8.00
71794;PMS7003;59641;45.188;5.712;2023-06-22T06:02:56;11.00;10.50;7.00
71794;PMS7003;59641;45.188;5.712;2023-06-22T06:05:26;10.00;10.00;7.60
71794;PMS7003;59641;45.188;5.712;2023-06-22T06:07:51;11.25;11.00;8.50
71794;PMS7003;59641;45.188;5.712;2023-06-22T06:10:17;10.75;10.75;9.50
71794;PMS7003;59641;45.188;5.712;2023-06-22T06:12:42;11.25;10.50;7.25
71794;PMS7003;59641;45.188;5.712;2023-06-22T06:15:08;10.50;10.25;8.00
71794;PMS7003;59641;45.188;5.712;2023-06-22T06:17:33;10.50;10.25;6.75
71794;PMS7003;59641;45.188;5.712;2023-06-22T06:19:59;12.75;11.50;9.00
71794;PMS7003;59641;45.188;5.712;2023-06-22T06:22:25;13.60;11.80;8.80
71794;PMS7003;59641;45.188;5.712;2023-06-22T06:24:50;11.75;7.25;6.25
71794;PMS7003;59641;45.188;5.712;2023-06-22T06:27:16;13.00;11.75;8.75
71794;PMS7003;59641;45.188;5.712;2023-06-22T06:29:43;15.80;14.20;9.20
71794;PMS7003;59641;45.188;5.712;2023-06-22T06:32:10;11.00;10.00;7.00
71794;PMS7003;59641;45.188;5.712;2023-06-22T06:34:35;11.25;11.00;8.50
71794;PMS7003;59641;45.188;5.712;2023-06-22T06:37:01;10.00;10.00;8.75
71794;PMS7003;59641;45.188;5.712;2023-06-22T06:39:26;9.25;9.00;5.50
71794;PMS7003;59641;45.188;5.712;2023-06-22T06:41:51;7.50;7.00;6.00
71794;PMS7003;59641;45.188;5.712;2023-06-22T06:44:17;12.00;10.50;6.75
71794;PMS7003;59641;45.188;5.712;2023-06-22T06:46:42;8.25;8.25;6.50
71794;PMS7003;59641;45.188;5.712;2023-06-22T06:49:07;10.25;10.25;6.75
71794;PMS7003;59641;45.188;5.712;2023-06-22T06:51:33;11.75;10.50;7.25
71794;PMS7003;59641;45.188;5.712;2023-06-22T06:53:58;12.75;12.25;9.00
71794;PMS7003;59641;45.188;5.712;2023-06-22T06:56:23;11.75;11.00;7.75
71794;PMS7003;59641;45.188;5.712;2023-06-22T06:58:52;11.00;9.25;7.25
71794;PMS7003;59641;45.188;5.712;2023-06-22T07:01:17;10.00;10.00;7.20
71794;PMS7003;59641;45.188;5.712;2023-06-22T07:03:44;12.20;11.20;8.80
71794;PMS7003;59641;45.188;5.712;2023-06-22T07:06:10;10.00;10.00;8.00
71794;PMS7003;59641;45.188;5.712;2023-06-22T07:08:35;12.00;9.75;8.00
71794;PMS7003;59641;45.188;5.712;2023-06-22T07:11:01;15.40;14.80;10.40
71794;PMS7003;59641;45.188;5.712;2023-06-22T07:13:27;13.50;13.25;10.00
71794;PMS7003;59641;45.188;5.712;2023-06-22T07:15:52;13.00;11.50;8.75
71794;PMS7003;59641;45.188;5.712;2023-06-22T07:18:18;10.75;10.75;8.00
71794;PMS7003;59641;45.188;5.712;2023-06-22T07:20:43;12.25;10.75;8.25
71794;PMS7003;59641;45.188;5.712;2023-06-22T07:23:08;12.00;10.50;8.25
71794;PMS7003;59641;45.188;5.712;2023-06-22T07:25:34;11.00;9.25;6.75
71794;PMS7003;59641;45.188;5.712;2023-06-22T07:28:03;12.25;10.25;8.00
71794;PMS7003;59641;45.188;5.712;2023-06-22T07:30:30;10.20;8.80;5.20
71794;PMS7003;59641;45.188;5.712;2023-06-22T07:32:57;11.60;9.00;7.20
71794;PMS7003;59641;45.188;5.712;2023-06-22T07:35:23;7.60;7.20;5.60
71794;PMS7003;59641;45.188;5.712;2023-06-22T07:37:49;8.20;8.00;5.00
71794;PMS7003;59641;45.188;5.712;2023-06-22T07:40:14;9.00;8.00;6.00
71794;PMS7003;59641;45.188;5.712;2023-06-22T07:42:40;5.00;5.00;4.00
71794;PMS7003;59641;45.188;5.712;2023-06-22T07:45:06;8.00;6.50;5.75
71794;PMS7003;59641;45.188;5.712;2023-06-22T07:47:33;7.60;5.00;3.00
71794;PMS7003;59641;45.188;5.712;2023-06-22T07:50:00;8.60;7.20;4.40
71794;PMS7003;59641;45.188;5.712;2023-06-22T07:52:26;6.80;6.00;4.80
71794;PMS7003;59641;45.188;5.712;2023-06-22T07:54:52;8.00;6.00;4.40
71794;PMS7003;59641;45.188;5.712;2023-06-22T07:57:18;5.00;5.00;3.50
71794;PMS7003;59641;45.188;5.712;2023-06-22T07:59:43;3.75;3.25;2.00
71794;PMS7003;59641;45.188;5.712;2023-06-22T08:02:09;2.50;2.00;2.00
71794;PMS7003;59641;45.188;5.712;2023-06-22T08:04:34;6.75;3.75;2.75
71794;PMS7003;59641;45.188;5.712;2023-06-22T08:07:00;5.75;3.75;2.25
71794;PMS7003;59641;45.188;5.712;2023-06-22T08:09:28;2.00;2.00;1.00
71794;PMS7003;59641;45.188;5.712;2023-06-22T08:11:54;2.60;2.60;1.60
71794;PMS7003;59641;45.188;5.712;2023-06-22T08:14:21;3.20;3.20;2.80
71794;PMS7003;59641;45.188;5.712;2023-06-22T08:16:46;5.50;4.00;3.00
71794;PMS7003;59641;45.188;5.712;2023-06-22T08:19:12;3.00;2.75;1.00
71794;PMS7003;59641;45.188;5.712;2023-06-22T08:21:37;6.75;3.75;3.50
71794;PMS7003;59641;45.188;5.712;2023-06-22T08:24:03;3.50;2.00;1.00
71794;PMS7003;59641;45.188;5.712;2023-06-22T08:26:28;3.00;3.00;2.00
71794;PMS7003;59641;45.188;5.712;2023-06-22T08:28:54;3.25;2.00;2.00
71794;PMS7003;59641;45.188;5.712;2023-06-22T08:31:19;1.00;1.00;0.00
71794;PMS7003;59641;45.188;5.712;2023-06-22T08:33:44;6.00;4.00;2.00
71794;PMS7003;59641;45.188;5.712;2023-06-22T08:36:11;3.20;2.00;2.00
71794;PMS7003;59641;45.188;5.712;2023-06-22T08:38:38;3.00;3.00;2.40
71794;PMS7003;59641;45.188;5.712;2023-06-22T08:41:03;3.50;3.00;1.00
71794;PMS7003;59641;45.188;5.712;2023-06-22T08:43:29;4.25;3.75;3.00
71794;PMS7003;59641;45.188;5.712;2023-06-22T08:45:54;5.25;3.00;1.00
71794;PMS7003;59641;45.188;5.712;2023-06-22T08:48:19;5.00;5.00;2.50
71794;PMS7003;59641;45.188;5.712;2023-06-22T08:50:45;14.25;10.50;7.00
71794;PMS7003;59641;45.188;5.712;2023-06-22T08:53:10;10.75;10.00;7.50
71794;PMS7003;59641;45.188;5.712;2023-06-22T08:55:35;7.50;7.25;5.00
71794;PMS7003;59641;45.188;5.712;2023-06-22T08:58:01;9.25;6.75;5.00
71794;PMS7003;59641;45.188;5.712;2023-06-22T09:00:26;1.00;0.00;0.00
71794;PMS7003;59641;45.188;5.712;2023-06-22T09:02:54;4.00;4.00;1.80
71794;PMS7003;59641;45.188;5.712;2023-06-22T09:05:23;6.00;4.00;2.00
71794;PMS7003;59641;45.188;5.712;2023-06-22T09:07:50;9.40;4.20;2.00
71794;PMS7003;59641;45.188;5.712;2023-06-22T09:10:15;4.25;3.00;2.00
71794;PMS7003;59641;45.188;5.712;2023-06-22T09:12:41;3.25;3.25;2.00
71794;PMS7003;59641;45.188;5.712;2023-06-22T09:15:07;6.40;3.40;1.00
71794;PMS7003;59641;45.188;5.712;2023-06-22T09:17:33;3.00;3.00;2.00
71794;PMS7003;59641;45.188;5.712;2023-06-22T09:19:59;1.60;1.20;1.00
71794;PMS7003;59641;45.188;5.712;2023-06-22T09:22:24;3.75;1.50;1.25
71794;PMS7003;59641;45.188;5.712;2023-06-22T09:24:54;4.20;3.00;1.00
71794;PMS7003;59641;45.188;5.712;2023-06-22T09:27:19;5.00;3.00;1.25
71794;PMS7003;59641;45.188;5.712;2023-06-22T09:29:45;4.00;3.25;2.00
71794;PMS7003;59641;45.188;5.712;2023-06-22T09:32:10;6.75;4.50;2.25
71794;PMS7003;59641;45.188;5.712;2023-06-22T09:34:35;3.00;3.00;2.00
71794;PMS7003;59641;45.188;5.712;2023-06-22T09:37:01;3.00;3.00;1.25
71794;PMS7003;59641;45.188;5.712;2023-06-22T09:39:26;5.00;3.00;1.00
71794;PMS7003;59641;45.188;5.712;2023-06-22T09:41:51;5.50;4.00;2.00
71794;PMS7003;59641;45.188;5.712;2023-06-22T09:44:17;4.75;4.75;3.00
71794;PMS7003;59641;45.188;5.712;2023-06-22T09:46:43;5.75;3.00;2.00
71794;PMS7003;59641;45.188;5.712;2023-06-22T09:49:08;3.00;2.25;2.00
71794;PMS7003;59641;45.188;5.712;2023-06-22T09:51:34;4.50;3.00;1.00
71794;PMS7003;59641;45.188;5.712;2023-06-22T09:53:59;4.50;4.50;2.25
71794;PMS7003;59641;45.188;5.712;2023-06-22T09:56:24;4.75;4.00;3.00
71794;PMS7003;59641;45.188;5.712;2023-06-22T09:58:52;3.20;3.20;2.20
71794;PMS7003;59641;45.188;5.712;2023-06-22T10:01:17;3.25;3.00;2.00
71794;PMS7003;59641;45.188;5.712;2023-06-22T10:03:43;5.50;5.50;3.00
71794;PMS7003;59641;45.188;5.712;2023-06-22T10:06:08;4.75;4.75;4.00
71794;PMS7003;59641;45.188;5.712;2023-06-22T10:08:34;4.25;4.25;2.25
71794;PMS7003;59641;45.188;5.712;2023-06-22T10:11:01;4.60;2.60;2.00
71794;PMS7003;59641;45.188;5.712;2023-06-22T10:13:26;6.50;5.00;2.75
71794;PMS7003;59641;45.188;5.712;2023-06-22T10:15:51;6.75;3.00;2.50
71794;PMS7003;59641;45.188;5.712;2023-06-22T10:18:18;4.40;3.80;2.20
71794;PMS7003;59641;45.188;5.712;2023-06-22T10:20:44;4.00;3.00;2.50
71794;PMS7003;59641;45.188;5.712;2023-06-22T10:23:12;7.40;4.80;4.00
71794;PMS7003;59641;45.188;5.712;2023-06-22T10:25:37;4.00;3.75;2.00
71794;PMS7003;59641;45.188;5.712;2023-06-22T10:28:02;9.25;5.50;3.00
71794;PMS7003;59641;45.188;5.712;2023-06-22T10:30:28;6.50;3.50;1.75
71794;PMS7003;59641;45.188;5.712;2023-06-22T10:32:54;5.25;3.75;2.75
71794;PMS7003;59641;45.188;5.712;2023-06-22T10:35:19;6.00;5.25;4.25
71794;PMS7003;59641;45.188;5.712;2023-06-22T10:37:45;5.00;4.75;3.00
71794;PMS7003;59641;45.188;5.712;2023-06-22T10:40:14;5.80;5.00;3.40
71794;PMS7003;59641;45.188;5.712;2023-06-22T10:42:41;4.60;4.60;3.00
71794;PMS7003;59641;45.188;5.712;2023-06-22T10:45:06;4.25;4.25;3.25
71794;PMS7003;59641;45.188;5.712;2023-06-22T10:47:33;6.80;5.60;3.20
71794;PMS7003;59641;45.188;5.712;2023-06-22T10:49:58;7.25;7.25;4.75
71794;PMS7003;59641;45.188;5.712;2023-06-22T10:52:24;7.25;4.00;3.00
71794;PMS7003;59641;45.188;5.712;2023-06-22T10:54:49;6.50;3.75;2.25
71794;PMS7003;59641;45.188;5.712;2023-06-22T10:57:14;2.50;2.50;1.25
71794;PMS7003;59641;45.188;5.712;2023-06-22T10:59:40;5.50;3.75;2.50
71794;PMS7003;59641;45.188;5.712;2023-06-22T11:02:05;5.00;3.50;2.00
71794;PMS7003;59641;45.188;5.712;2023-06-22T11:04:30;6.25;5.00;2.00
71794;PMS7003;59641;45.188;5.712;2023-06-22T11:06:56;4.00;2.00;1.00
71794;PMS7003;59641;45.188;5.712;2023-06-22T11:09:21;2.25;2.25;2.00
71794;PMS7003;59641;45.188;5.712;2023-06-22T11:11:47;4.75;3.75;3.00
71794;PMS7003;59641;45.188;5.712;2023-06-22T11:14:13;3.60;3.60;3.20
71794;PMS7003;59641;45.188;5.712;2023-06-22T11:16:39;5.60;4.20;2.60
71794;PMS7003;59641;45.188;5.712;2023-06-22T11:19:04;3.50;3.00;2.00
71794;PMS7003;59641;45.188;5.712;2023-06-22T11:21:30;8.80;5.80;3.00
71794;PMS7003;59641;45.188;5.712;2023-06-22T11:23:56;6.25;3.25;2.00
71794;PMS7003;59641;45.188;5.712;2023-06-22T11:26:22;8.75;3.75;2.75
71794;PMS7003;59641;45.188;5.712;2023-06-22T11:28:47;5.00;4.00;2.00
71794;PMS7003;59641;45.188;5.712;2023-06-22T11:31:14;4.25;3.75;2.75
71794;PMS7003;59641;45.188;5.712;2023-06-22T11:33:39;5.20;4.00;3.00
71794;PMS7003;59641;45.188;5.712;2023-06-22T11:36:05;5.50;5.50;4.50
71794;PMS7003;59641;45.188;5.712;2023-06-22T11:38:30;5.50;4.25;4.00
71794;PMS7003;59641;45.188;5.712;2023-06-22T11:40:57;4.75;4.75;3.50
71794;PMS7003;59641;45.188;5.712;2023-06-22T11:43:23;6.00;4.60;3.80
71794;PMS7003;59641;45.188;5.712;2023-06-22T11:45:48;3.50;3.50;3.00
71794;PMS7003;59641;45.188;5.712;2023-06-22T11:48:13;7.25;5.50;4.50
71794;PMS7003;59641;45.188;5.712;2023-06-22T11:50:39;5.00;5.00;4.00
71794;PMS7003;59641;45.188;5.712;2023-06-22T11:53:04;5.25;5.25;3.50
71794;PMS7003;59641;45.188;5.712;2023-06-22T11:55:29;9.50;8.75;6.00
71794;PMS7003;59641;45.188;5.712;2023-06-22T11:57:55;8.25;6.00;5.00
71794;PMS7003;59641;45.188;5.712;2023-06-22T12:00:24;8.40;7.20;5.40
71794;PMS7003;59641;45.188;5.712;2023-06-22T12:02:50;7.50;6.50;5.00
71794;PMS7003;59641;45.188;5.712;2023-06-22T12:05:17;4.40;4.40;3.60
71794;PMS7003;59641;45.188;5.712;2023-06-22T12:07:49;5.40;4.80;4.00
71794;PMS7003;59641;45.188;5.712;2023-06-22T12:10:15;5.25;5.25;4.50
71794;PMS7003;59641;45.188;5.712;2023-06-22T12:12:41;4.50;3.25;3.00
71794;PMS7003;59641;45.188;5.712;2023-06-22T12:15:07;7.25;4.00;3.00
71794;PMS7003;59641;45.188;5.712;2023-06-22T12:17:34;7.00;5.80;3.20
71794;PMS7003;59641;45.188;5.712;2023-06-22T12:19:59;5.00;4.50;2.50
71794;PMS7003;59641;45.188;5.712;2023-06-22T12:22:24;6.50;5.75;3.50
71794;PMS7003;59641;45.188;5.712;2023-06-22T12:24:50;12.25;9.75;6.50
71794;PMS7003;59641;45.188;5.712;2023-06-22T12:27:16;5.00;5.00;3.25
71794;PMS7003;59641;45.188;5.712;2023-06-22T12:29:43;6.60;5.00;4.20
71794;PMS7003;59641;45.188;5.712;2023-06-22T12:32:10;4.00;4.00;3.00
71794;PMS7003;59641;45.188;5.712;2023-06-22T12:34:37;5.00;5.00;3.00
71794;PMS7003;59641;45.188;5.712;2023-06-22T12:37:03;7.40;6.60;5.00
71794;PMS7003;59641;45.188;5.712;2023-06-22T12:39:30;6.40;5.80;3.60
71794;PMS7003;59641;45.188;5.712;2023-06-22T12:41:56;5.25;5.25;3.50
71794;PMS7003;59641;45.188;5.712;2023-06-22T12:44:21;8.50;6.00;4.50
71794;PMS7003;59641;45.188;5.712;2023-06-22T12:46:46;7.00;4.75;3.00
71794;PMS7003;59641;45.188;5.712;2023-06-22T12:49:11;6.00;5.00;4.75
71794;PMS7003;59641;45.188;5.712;2023-06-22T12:51:40;6.25;6.25;4.50
71794;PMS7003;59641;45.188;5.712;2023-06-22T12:54:10;6.80;6.80;5.60
71794;PMS7003;59641;45.188;5.712;2023-06-22T12:56:36;7.40;5.40;4.60
71794;PMS7003;59641;45.188;5.712;2023-06-22T12:59:03;9.00;5.20;4.00
71794;PMS7003;59641;45.188;5.712;2023-06-22T13:01:31;5.80;4.40;3.40
71794;PMS7003;59641;45.188;5.712;2023-06-22T13:03:57;11.50;7.00;5.00
71794;PMS7003;59641;45.188;5.712;2023-06-22T13:06:23;5.60;5.60;3.80
71794;PMS7003;59641;45.188;5.712;2023-06-22T13:08:48;10.00;8.75;6.00
71794;PMS7003;59641;45.188;5.712;2023-06-22T13:11:14;9.25;8.00;5.75
71794;PMS7003;59641;45.188;5.712;2023-06-22T13:13:39;5.50;4.50;4.25
71794;PMS7003;59641;45.188;5.712;2023-06-22T13:16:05;7.25;5.75;4.00
71794;PMS7003;59641;45.188;5.712;2023-06-22T13:18:30;9.25;7.75;4.75
71794;PMS7003;59641;45.188;5.712;2023-06-22T13:20:55;7.25;7.00;5.00
71794;PMS7003;59641;45.188;5.712;2023-06-22T13:23:23;5.80;5.60;3.60
71794;PMS7003;59641;45.188;5.712;2023-06-22T13:25:48;7.50;7.25;5.50
71794;PMS7003;59641;45.188;5.712;2023-06-22T13:28:14;8.25;7.25;5.50
71794;PMS7003;59641;45.188;5.712;2023-06-22T13:30:40;8.80;7.20;4.60
71794;PMS7003;59641;45.188;5.712;2023-06-22T13:33:06;8.00;7.00;5.00
71794;PMS7003;59641;45.188;5.712;2023-06-22T13:35:32;10.00;9.00;7.00
71794;PMS7003;59641;45.188;5.712;2023-06-22T13:37:57;12.75;9.75;6.25
71794;PMS7003;59641;45.188;5.712;2023-06-22T13:40:23;8.50;8.00;6.00
71794;PMS7003;59641;45.188;5.712;2023-06-22T13:42:48;8.50;7.25;6.25
71794;PMS7003;59641;45.188;5.712;2023-06-22T13:45:14;6.50;6.50;4.75
71794;PMS7003;59641;45.188;5.712;2023-06-22T13:47:41;9.40;8.20;6.00
71794;PMS7003;59641;45.188;5.712;2023-06-22T13:50:07;10.00;8.00;4.00
71794;PMS7003;59641;45.188;5.712;2023-06-22T13:52:32;5.00;5.00;3.00
71794;PMS7003;59641;45.188;5.712;2023-06-22T13:54:58;4.25;4.25;3.25
71794;PMS7003;59641;45.188;5.712;2023-06-22T13:57:23;2.50;2.00;1.25
71794;PMS7003;59641;45.188;5.712;2023-06-22T13:59:48;0.00;0.00;0.00
71794;PMS7003;59641;45.188;5.712;2023-06-22T14:02:13;1.50;1.50;0.75
71794;PMS7003;59641;45.188;5.712;2023-06-22T14:04:39;1.50;1.00;0.00
71794;PMS7003;59641;45.188;5.712;2023-06-22T14:07:04;0.25;0.00;0.00
71794;PMS7003;59641;45.188;5.712;2023-06-22T14:09:30;1.00;0.00;0.00
71794;PMS7003;59641;45.188;5.712;2023-06-22T14:11:55;1.50;1.00;0.75
71794;PMS7003;59641;45.188;5.712;2023-06-22T14:14:21;0.00;0.00;0.00
71794;PMS7003;59641;45.188;5.712;2023-06-22T14:16:46;0.75;0.75;0.00
71794;PMS7003;59641;45.188;5.712;2023-06-22T14:19:12;0.00;0.00;0.00
71794;PMS7003;59641;45.188;5.712;2023-06-22T14:21:38;0.00;0.00;0.00
71794;PMS7003;59641;45.188;5.712;2023-06-22T14:24:03;0.00;0.00;0.00
71794;PMS7003;59641;45.188;5.712;2023-06-22T14:26:29;0.50;0.00;0.00
71794;PMS7003;59641;45.188;5.712;2023-06-22T14:28:54;0.00;0.00;0.00
71794;PMS7003;59641;45.188;5.712;2023-06-22T14:31:21;0.60;0.00;0.00
71794;PMS7003;59641;45.188;5.712;2023-06-22T14:33:47;0.00;0.00;0.00
71794;PMS7003;59641;45.188;5.712;2023-06-22T14:36:13;0.60;0.00;0.00
71794;PMS7003;59641;45.188;5.712;2023-06-22T14:38:39;1.00;1.00;0.00
71794;PMS7003;59641;45.188;5.712;2023-06-22T14:41:05;0.50;0.50;0.00
71794;PMS7003;59641;45.188;5.712;2023-06-22T14:43:30;1.50;0.25;0.00
71794;PMS7003;59641;45.188;5.712;2023-06-22T14:45:55;0.25;0.00;0.00
71794;PMS7003;59641;45.188;5.712;2023-06-22T14:48:21;0.00;0.00;0.00
71794;PMS7003;59641;45.188;5.712;2023-06-22T14:50:46;0.00;0.00;0.00
71794;PMS7003;59641;45.188;5.712;2023-06-22T14:53:12;1.50;1.50;0.75
71794;PMS7003;59641;45.188;5.712;2023-06-22T14:55:37;1.75;1.75;0.50
71794;PMS7003;59641;45.188;5.712;2023-06-22T14:58:02;3.50;0.25;0.00
71794;PMS7003;59641;45.188;5.712;2023-06-22T15:00:28;2.00;1.00;0.50
71794;PMS7003;59641;45.188;5.712;2023-06-22T15:02:53;3.25;1.00;0.00
71794;PMS7003;59641;45.188;5.712;2023-06-22T15:05:18;1.50;0.00;0.00
71794;PMS7003;59641;45.188;5.712;2023-06-22T15:07:44;1.50;0.75;0.00
71794;PMS7003;59641;45.188;5.712;2023-06-22T15:10:09;0.00;0.00;0.00
71794;PMS7003;59641;45.188;5.712;2023-06-22T15:12:34;0.00;0.00;0.00
71794;PMS7003;59641;45.188;5.712;2023-06-22T15:15:00;2.00;1.75;0.75
71794;PMS7003;59641;45.188;5.712;2023-06-22T15:17:26;0.00;0.00;0.00
71794;PMS7003;59641;45.188;5.712;2023-06-22T15:19:54;1.00;1.00;0.80
71794;PMS7003;59641;45.188;5.712;2023-06-22T15:22:20;3.80;2.60;0.80
71794;PMS7003;59641;45.188;5.712;2023-06-22T15:24:46;2.25;2.00;0.50
71794;PMS7003;59641;45.188;5.712;2023-06-22T15:27:13;0.60;0.60;0.00
71794;PMS7003;59641;45.188;5.712;2023-06-22T15:29:39;0.00;0.00;0.00
71794;PMS7003;59641;45.188;5.712;2023-06-22T15:32:05;0.00;0.00;0.00